createdAt,value
2022-09-07T00:03:30.519Z,19.50
2022-09-07T00:08:32.407Z,19.23
2022-09-07T00:13:37.722Z,19.09
2022-09-07T00:18:43.805Z,18.91
2022-09-07T00:23:48.726Z,19.07
2022-09-07T00:28:50.735Z,18.57
2022-09-07T00:33:58.823Z,18.59
2022-09-07T00:39:00.586Z,18.68
2022-09-07T00:44:39.632Z,18.75
2022-09-07T00:49:44.874Z,18.88
2022-09-07T00:54:52.802Z,18.89
2022-09-07T00:59:57.632Z,18.49
2022-09-07T01:05:09.534Z,18.55
2022-09-07T01:10:11.922Z,18.51
2022-09-07T01:15:13.580Z,18.64
2022-09-07T01:20:36.498Z,18.52
2022-09-07T01:25:56.903Z,18.61
2022-09-07T01:31:09.145Z,18.61
2022-09-07T01:36:26.238Z,18.47
2022-09-07T01:41:42.979Z,18.63
2022-09-07T01:46:53.818Z,18.70
2022-09-07T01:52:04.683Z,18.75
2022-09-07T01:57:14.318Z,18.74
2022-09-07T02:02:29.470Z,18.53
2022-09-07T02:07:40.315Z,18.55
2022-09-07T02:12:52.536Z,18.65
2022-09-07T02:18:04.852Z,18.64
2022-09-07T02:23:16.051Z,18.57
2022-09-07T02:28:24.873Z,18.33
2022-09-07T02:33:27.898Z,18.36
2022-09-07T02:38:30.200Z,18.39
2022-09-07T02:43:32.908Z,18.56
2022-09-07T02:48:52.978Z,18.56
2022-09-07T02:54:15.758Z,18.26
2022-09-07T02:59:26.016Z,18.25
2022-09-07T03:05:05.525Z,18.18
2022-09-07T03:10:08.636Z,18.14
2022-09-07T03:15:13.119Z,18.10
2022-09-07T03:20:17.100Z,18.09
2022-09-07T03:25:19.404Z,17.98
2022-09-07T03:30:21.200Z,18.12
2022-09-07T03:35:22.831Z,18.23
2022-09-07T03:40:25.468Z,17.99
2022-09-07T03:45:27.135Z,18.05
2022-09-07T03:50:33.001Z,17.96
2022-09-07T03:55:34.674Z,17.89
2022-09-07T04:00:41.455Z,17.78
2022-09-07T04:05:43.012Z,17.68
2022-09-07T04:10:44.726Z,17.63
2022-09-07T04:15:47.612Z,17.75
2022-09-07T04:20:52.040Z,17.83
2022-09-07T04:25:53.752Z,17.88
2022-09-07T04:30:55.487Z,17.84
2022-09-07T04:36:00.269Z,17.63
2022-09-07T04:41:06.729Z,17.53
2022-09-07T04:46:17.567Z,17.43
2022-09-07T04:51:21.200Z,17.28
2022-09-07T04:56:23.670Z,17.19
2022-09-07T05:01:26.244Z,17.21
2022-09-07T05:06:28.352Z,16.97
2022-09-07T05:11:30.313Z,16.88
2022-09-07T05:16:38.289Z,16.83
2022-09-07T05:21:40.226Z,16.81
2022-09-07T05:26:42.217Z,16.87
2022-09-07T05:31:43.868Z,16.85
2022-09-07T05:36:45.621Z,16.90
2022-09-07T05:41:47.683Z,16.92
2022-09-07T05:46:49.399Z,16.95
2022-09-07T05:51:51.096Z,16.80
2022-09-07T05:56:52.803Z,16.73
2022-09-07T06:01:54.567Z,16.62
2022-09-07T06:07:19.966Z,16.62
2022-09-07T06:12:18.023Z,16.68
2022-09-07T06:17:19.787Z,16.64
2022-09-07T06:22:21.633Z,16.66
2022-09-07T06:27:23.611Z,16.68
2022-09-07T06:37:44.153Z,16.74
2022-09-07T06:42:46.926Z,16.75
2022-09-07T06:47:54.034Z,16.83
2022-09-07T06:58:17.478Z,16.92
2022-09-07T07:03:19.419Z,16.99
2022-09-07T07:08:23.352Z,16.99
2022-09-07T07:13:25.126Z,17.07
2022-09-07T07:18:27.884Z,17.23
2022-09-07T07:23:29.800Z,17.19
2022-09-07T07:33:53.828Z,17.16
2022-09-07T07:44:03.370Z,17.26
2022-09-07T07:49:05.077Z,17.46
2022-09-07T07:54:06.667Z,17.78
2022-09-07T07:59:15.041Z,17.78
2022-09-07T08:04:17.339Z,18.01
2022-09-07T08:09:18.979Z,18.08
2022-09-07T08:14:21.965Z,18.18
2022-09-07T08:19:23.649Z,18.50
2022-09-07T08:24:32.817Z,18.71
2022-09-07T08:29:35.589Z,18.90
2022-09-07T08:34:37.452Z,19.17
2022-09-07T08:39:39.126Z,19.36
2022-09-07T08:44:49.877Z,19.43
2022-09-07T08:50:12.161Z,19.69
2022-09-07T08:55:13.747Z,19.64
2022-09-07T09:00:17.659Z,19.60
2022-09-07T09:05:57.755Z,19.98
2022-09-07T09:10:59.461Z,20.11
2022-09-07T09:16:28.204Z,20.38
2022-09-07T09:21:30.285Z,20.36
2022-09-07T09:26:34.405Z,20.88
2022-09-07T09:31:36.172Z,20.88
2022-09-07T09:36:49.566Z,20.95
2022-09-07T09:41:51.638Z,20.77
2022-09-07T09:52:30.001Z,20.83
2022-09-07T10:09:02.401Z,21.71
2022-09-07T10:14:04.494Z,21.87
2022-09-07T10:19:06.436Z,21.85
2022-09-07T10:24:07.995Z,21.84
2022-09-07T10:29:24.824Z,22.49
2022-09-07T10:34:56.149Z,22.60
2022-09-07T10:40:26.008Z,22.07
2022-09-07T10:45:58.644Z,22.78
2022-09-07T10:51:14.102Z,22.45
2022-09-07T10:56:27.855Z,22.07
2022-09-07T11:01:52.816Z,22.19
2022-09-07T11:07:16.216Z,22.53
2022-09-07T11:12:39.272Z,23.22
2022-09-07T11:17:49.365Z,23.83
2022-09-07T11:23:07.014Z,24.19
2022-09-07T11:28:23.070Z,24.29
2022-09-07T11:33:32.167Z,24.33
2022-09-07T11:38:49.676Z,24.11
2022-09-07T11:43:58.239Z,24.91
2022-09-07T11:49:00.050Z,24.74
2022-09-07T11:54:19.880Z,24.59
2022-09-07T11:59:36.751Z,24.23
2022-09-07T12:04:58.986Z,24.65
2022-09-07T12:10:28.321Z,23.87
2022-09-07T12:15:48.150Z,23.95
2022-09-07T12:20:50.177Z,24.25
2022-09-07T12:25:52.599Z,24.26
2022-09-07T12:31:00.301Z,24.69
2022-09-07T12:36:22.844Z,24.69
2022-09-07T12:41:39.676Z,24.65
2022-09-07T12:46:46.730Z,24.90
2022-09-07T12:52:04.989Z,24.33
2022-09-07T12:57:36.252Z,24.18
2022-09-07T13:03:00.600Z,23.92
2022-09-07T13:08:24.195Z,23.78
2022-09-07T13:18:52.432Z,23.56
2022-09-07T13:29:55.455Z,23.42
2022-09-07T13:35:06.017Z,23.43
2022-09-07T13:40:13.926Z,23.81
2022-09-07T13:45:27.737Z,24.14
2022-09-07T13:50:52.300Z,24.02
2022-09-07T13:56:07.499Z,23.80
2022-09-07T14:01:28.729Z,23.75
2022-09-07T14:06:33.226Z,23.45
2022-09-07T14:12:12.286Z,23.31
2022-09-07T14:17:18.190Z,23.46
2022-09-07T14:22:35.153Z,23.63
2022-09-07T14:27:44.671Z,23.78
2022-09-07T14:32:55.826Z,23.71
2022-09-07T14:38:06.776Z,23.71
2022-09-07T14:43:34.271Z,23.50
2022-09-07T14:48:39.923Z,23.64
2022-09-07T14:53:47.515Z,23.55
2022-09-07T14:58:51.568Z,23.42
2022-09-07T15:04:01.040Z,23.53
2022-09-07T15:09:04.858Z,23.38
2022-09-07T15:14:17.070Z,23.28
2022-09-07T15:19:18.764Z,23.30
2022-09-07T15:24:20.377Z,23.37
2022-09-07T15:29:24.584Z,23.46
2022-09-07T15:34:28.546Z,23.33
2022-09-07T15:39:30.577Z,23.24
2022-09-07T15:44:32.593Z,23.14
2022-09-07T15:49:34.912Z,23.10
2022-09-07T15:54:39.879Z,23.09
2022-09-07T15:59:41.774Z,23.19
2022-09-07T16:04:44.635Z,23.04
2022-09-07T16:09:46.934Z,23.07
2022-09-07T16:14:48.781Z,22.90
2022-09-07T16:19:50.480Z,22.80
2022-09-07T16:24:52.354Z,22.79
2022-09-07T16:29:54.046Z,22.74
2022-09-07T16:34:56.680Z,22.66
2022-09-07T16:39:59.569Z,22.67
2022-09-07T16:50:23.552Z,22.53
2022-09-07T16:55:25.463Z,22.48
2022-09-07T17:00:32.349Z,22.40
2022-09-07T17:06:08.881Z,22.36
2022-09-07T17:11:19.177Z,22.26
2022-09-07T17:16:29.985Z,22.25
2022-09-07T17:21:38.904Z,22.07
2022-09-07T17:26:42.261Z,22.04
2022-09-07T17:37:09.109Z,22.16
2022-09-07T17:42:13.840Z,22.14
2022-09-07T17:47:15.422Z,22.07
2022-09-07T17:52:17.236Z,22.08
2022-09-07T17:57:19.073Z,22.03
2022-09-07T18:02:20.772Z,21.92
2022-09-07T18:07:22.415Z,21.83
2022-09-07T18:12:25.311Z,21.84
2022-09-07T18:17:28.095Z,21.71
2022-09-07T18:22:29.968Z,21.62
2022-09-07T18:27:34.415Z,21.57
2022-09-07T18:32:36.092Z,21.55
2022-09-07T18:37:39.429Z,21.43
2022-09-07T18:42:42.145Z,21.38
2022-09-07T18:47:47.817Z,21.39
2022-09-07T18:53:16.766Z,21.36
2022-09-07T18:58:19.037Z,21.33
2022-09-07T19:03:21.354Z,21.27
2022-09-07T19:08:23.036Z,21.23
2022-09-07T19:13:24.719Z,21.14
2022-09-07T19:18:26.453Z,21.14
2022-09-07T19:23:28.169Z,21.05
2022-09-07T19:28:30.827Z,20.98
2022-09-07T19:33:33.845Z,20.89
2022-09-07T19:38:35.932Z,20.88
2022-09-07T19:43:38.548Z,20.87
2022-09-07T19:48:41.070Z,20.82
2022-09-07T19:53:46.040Z,20.81
2022-09-07T19:58:49.569Z,20.80
2022-09-07T20:04:00.252Z,20.78
2022-09-07T20:09:02.237Z,20.78
2022-09-07T20:14:04.170Z,20.83
2022-09-07T20:19:07.555Z,20.65
2022-09-07T20:24:13.974Z,20.57
2022-09-07T20:29:27.319Z,20.66
2022-09-07T20:34:30.159Z,20.66
2022-09-07T20:39:34.659Z,20.71
2022-09-07T20:44:40.352Z,20.74
2022-09-07T20:49:42.389Z,20.76
2022-09-07T20:54:44.106Z,20.69
2022-09-07T20:59:45.755Z,20.54
2022-09-07T21:04:47.449Z,20.48
2022-09-07T21:09:49.977Z,20.46
2022-09-07T21:14:52.815Z,20.43
2022-09-07T21:19:54.481Z,20.42
2022-09-07T21:24:58.152Z,20.32
2022-09-07T21:30:00.209Z,20.35
2022-09-07T21:35:02.613Z,20.24
2022-09-07T21:40:08.123Z,20.21
2022-09-07T21:45:11.867Z,20.18
2022-09-07T21:50:13.531Z,20.13
2022-09-07T21:55:15.310Z,20.11
2022-09-07T22:00:22.756Z,19.96
2022-09-07T22:05:24.520Z,19.81
2022-09-07T22:10:26.345Z,19.66
2022-09-07T22:15:29.106Z,19.73
2022-09-07T22:20:32.189Z,19.66
2022-09-07T22:25:34.725Z,19.68
2022-09-07T22:30:36.358Z,19.75
2022-09-07T22:35:37.987Z,19.80
2022-09-07T22:40:42.758Z,19.80
2022-09-07T22:45:44.532Z,19.73
2022-09-07T22:50:55.836Z,19.71
2022-09-07T22:55:58.056Z,19.67
2022-09-07T23:01:00.588Z,19.61
2022-09-07T23:06:03.330Z,19.51
2022-09-07T23:11:06.394Z,19.63
2022-09-07T23:16:08.164Z,19.53
2022-09-07T23:21:10.891Z,19.53
2022-09-07T23:26:13.559Z,19.43
2022-09-07T23:31:15.182Z,19.39
2022-09-07T23:36:17.621Z,19.27
2022-09-07T23:41:19.326Z,19.22
2022-09-07T23:46:21.713Z,19.22
2022-09-07T23:51:24.687Z,19.21
2022-09-07T23:56:27.990Z,19.16
